sensor_id;sensor_type;location;lat;lon;timestamp;pressure;altitude;pressure_sealevel;temperature;humidity
71621;BME280;59471;42.254;23.102;2023-08-20T00:00:22;95990.91;;;19.60;66.58
71621;BME280;59471;42.254;23.102;2023-08-20T00:02:51;95989.06;;;19.37;68.06
71621;BME280;59471;42.254;23.102;2023-08-20T00:05:23;95982.84;;;19.43;67.73
71621;BME280;59471;42.254;23.102;2023-08-20T00:07:49;95984.09;;;19.40;67.90
71621;BME280;59471;42.254;23.102;2023-08-20T00:10:14;95992.09;;;19.52;66.97
71621;BME280;59471;42.254;23.102;2023-08-20T00:12:40;96006.38;;;19.51;67.28
71621;BME280;59471;42.254;23.102;2023-08-20T00:15:06;95996.22;;;19.48;67.13
71621;BME280;59471;42.254;23.102;2023-08-20T00:17:36;96001.06;;;19.51;67.21
71621;BME280;59471;42.254;23.102;2023-08-20T00:20:04;95999.53;;;19.32;68.38
71621;BME280;59471;42.254;23.102;2023-08-20T00:22:42;95998.78;;;19.43;68.21
71621;BME280;59471;42.254;23.102;2023-08-20T00:25:11;95999.91;;;19.35;68.23
71621;BME280;59471;42.254;23.102;2023-08-20T00:27:38;96001.16;;;19.21;68.89
71621;BME280;59471;42.254;23.102;2023-08-20T00:30:05;96014.50;;;19.03;69.70
71621;BME280;59471;42.254;23.102;2023-08-20T00:32:31;96008.56;;;19.31;69.15
71621;BME280;59471;42.254;23.102;2023-08-20T00:34:56;96003.38;;;19.36;68.63
71621;BME280;59471;42.254;23.102;2023-08-20T00:37:22;96015.38;;;19.38;68.52
71621;BME280;59471;42.254;23.102;2023-08-20T00:39:47;96009.63;;;19.53;68.48
71621;BME280;59471;42.254;23.102;2023-08-20T00:42:13;96005.22;;;19.47;68.04
71621;BME280;59471;42.254;23.102;2023-08-20T00:44:42;96000.72;;;19.36;68.98
71621;BME280;59471;42.254;23.102;2023-08-20T00:47:12;96000.59;;;19.31;68.89
71621;BME280;59471;42.254;23.102;2023-08-20T00:49:39;95996.97;;;19.13;69.10
71621;BME280;59471;42.254;23.102;2023-08-20T00:52:07;95995.75;;;18.97;69.92
71621;BME280;59471;42.254;23.102;2023-08-20T00:54:33;95995.69;;;19.04;69.66
71621;BME280;59471;42.254;23.102;2023-08-20T00:57:00;95996.16;;;19.01;69.27
71621;BME280;59471;42.254;23.102;2023-08-20T00:59:27;95997.06;;;18.95;69.51
71621;BME280;59471;42.254;23.102;2023-08-20T01:01:55;96002.16;;;19.08;69.27
71621;BME280;59471;42.254;23.102;2023-08-20T01:04:20;95997.75;;;19.02;69.18
71621;BME280;59471;42.254;23.102;2023-08-20T01:12:28;95995.91;;;19.03;69.13
71621;BME280;59471;42.254;23.102;2023-08-20T01:14:54;96002.63;;;19.05;69.15
71621;BME280;59471;42.254;23.102;2023-08-20T01:17:20;95994.69;;;19.17;68.33
71621;BME280;59471;42.254;23.102;2023-08-20T01:19:46;95990.09;;;19.24;68.97
71621;BME280;59471;42.254;23.102;2023-08-20T01:25:23;95986.44;;;18.95;69.73
71621;BME280;59471;42.254;23.102;2023-08-20T01:30:52;95987.94;;;18.72;70.41
71621;BME280;59471;42.254;23.102;2023-08-20T01:33:19;95978.53;;;18.77;70.50
71621;BME280;59471;42.254;23.102;2023-08-20T01:35:45;95978.78;;;18.68;70.68
71621;BME280;59471;42.254;23.102;2023-08-20T01:38:10;95978.44;;;18.83;70.24
71621;BME280;59471;42.254;23.102;2023-08-20T01:40:36;95970.69;;;18.82;70.31
71621;BME280;59471;42.254;23.102;2023-08-20T01:43:01;95971.06;;;18.67;71.28
71621;BME280;59471;42.254;23.102;2023-08-20T01:45:27;95955.81;;;18.62;70.90
71621;BME280;59471;42.254;23.102;2023-08-20T01:47:52;95967.00;;;18.83;70.20
71621;BME280;59471;42.254;23.102;2023-08-20T01:50:18;95954.91;;;18.68;70.78
71621;BME280;59471;42.254;23.102;2023-08-20T01:52:44;95953.53;;;18.66;71.07
71621;BME280;59471;42.254;23.102;2023-08-20T01:55:10;95951.28;;;18.51;71.28
71621;BME280;59471;42.254;23.102;2023-08-20T01:57:36;95951.75;;;18.78;70.56
71621;BME280;59471;42.254;23.102;2023-08-20T02:00:03;95956.72;;;18.74;70.53
71621;BME280;59471;42.254;23.102;2023-08-20T02:02:30;95952.75;;;18.47;71.46
71621;BME280;59471;42.254;23.102;2023-08-20T02:04:56;95958.34;;;18.57;71.08
71621;BME280;59471;42.254;23.102;2023-08-20T02:07:21;95951.31;;;18.33;71.94
71621;BME280;59471;42.254;23.102;2023-08-20T02:09:47;95946.91;;;18.26;72.28
71621;BME280;59471;42.254;23.102;2023-08-20T02:12:13;95954.13;;;18.19;72.57
71621;BME280;59471;42.254;23.102;2023-08-20T02:14:39;95950.28;;;18.34;72.05
71621;BME280;59471;42.254;23.102;2023-08-20T02:17:06;95961.03;;;18.39;71.40
71621;BME280;59471;42.254;23.102;2023-08-20T02:19:32;95952.56;;;18.30;71.84
71621;BME280;59471;42.254;23.102;2023-08-20T02:21:57;95947.91;;;18.44;71.68
71621;BME280;59471;42.254;23.102;2023-08-20T02:24:23;95954.50;;;18.53;71.90
71621;BME280;59471;42.254;23.102;2023-08-20T02:26:48;95955.47;;;18.59;71.10
71621;BME280;59471;42.254;23.102;2023-08-20T02:29:14;95968.84;;;18.34;71.31
71621;BME280;59471;42.254;23.102;2023-08-20T02:31:40;95978.41;;;18.35;71.47
71621;BME280;59471;42.254;23.102;2023-08-20T02:34:05;95972.28;;;18.52;71.09
71621;BME280;59471;42.254;23.102;2023-08-20T02:36:30;95975.59;;;18.48;71.07
71621;BME280;59471;42.254;23.102;2023-08-20T02:38:56;95976.03;;;18.63;71.31
71621;BME280;59471;42.254;23.102;2023-08-20T02:41:21;95973.22;;;18.77;71.29
71621;BME280;59471;42.254;23.102;2023-08-20T02:43:48;95970.22;;;18.85;70.08
71621;BME280;59471;42.254;23.102;2023-08-20T02:46:14;95974.81;;;19.19;69.58
71621;BME280;59471;42.254;23.102;2023-08-20T02:48:40;95970.00;;;19.28;68.47
71621;BME280;59471;42.254;23.102;2023-08-20T02:51:05;95961.00;;;19.41;69.39
71621;BME280;59471;42.254;23.102;2023-08-20T02:53:31;95978.44;;;19.60;68.64
71621;BME280;59471;42.254;23.102;2023-08-20T02:55:56;95983.19;;;19.58;68.66
71621;BME280;59471;42.254;23.102;2023-08-20T02:58:22;95984.34;;;19.51;68.84
71621;BME280;59471;42.254;23.102;2023-08-20T03:00:48;95996.50;;;19.82;66.82
71621;BME280;59471;42.254;23.102;2023-08-20T03:03:13;95999.16;;;20.05;67.33
71621;BME280;59471;42.254;23.102;2023-08-20T03:05:39;96000.88;;;20.11;66.85
71621;BME280;59471;42.254;23.102;2023-08-20T03:08:05;96003.56;;;19.88;67.67
71621;BME280;59471;42.254;23.102;2023-08-20T03:10:34;96002.50;;;19.65;67.86
71621;BME280;59471;42.254;23.102;2023-08-20T03:13:00;96001.63;;;19.41;68.43
71621;BME280;59471;42.254;23.102;2023-08-20T03:15:27;96005.31;;;19.17;69.35
71621;BME280;59471;42.254;23.102;2023-08-20T03:17:54;96006.13;;;19.17;70.22
71621;BME280;59471;42.254;23.102;2023-08-20T03:20:19;96008.97;;;19.04;71.33
71621;BME280;59471;42.254;23.102;2023-08-20T03:22:45;96010.22;;;19.13;70.71
71621;BME280;59471;42.254;23.102;2023-08-20T03:25:10;96008.63;;;19.12;71.40
71621;BME280;59471;42.254;23.102;2023-08-20T03:27:36;96017.44;;;18.83;72.36
71621;BME280;59471;42.254;23.102;2023-08-20T03:30:03;96018.28;;;18.95;72.25
71621;BME280;59471;42.254;23.102;2023-08-20T03:32:29;96024.91;;;19.04;71.93
71621;BME280;59471;42.254;23.102;2023-08-20T03:34:55;96018.88;;;18.79;72.71
71621;BME280;59471;42.254;23.102;2023-08-20T03:37:21;96030.16;;;18.92;72.10
71621;BME280;59471;42.254;23.102;2023-08-20T03:39:47;96026.41;;;18.82;72.67
71621;BME280;59471;42.254;23.102;2023-08-20T03:42:13;96024.06;;;18.55;73.71
71621;BME280;59471;42.254;23.102;2023-08-20T03:44:39;96026.19;;;18.65;73.74
71621;BME280;59471;42.254;23.102;2023-08-20T03:47:04;96028.94;;;18.58;73.42
71621;BME280;59471;42.254;23.102;2023-08-20T03:49:30;96036.28;;;18.56;73.24
71621;BME280;59471;42.254;23.102;2023-08-20T03:51:56;96035.75;;;18.66;73.16
71621;BME280;59471;42.254;23.102;2023-08-20T03:54:21;96032.66;;;18.50;73.53
71621;BME280;59471;42.254;23.102;2023-08-20T03:56:47;96026.34;;;18.70;72.93
71621;BME280;59471;42.254;23.102;2023-08-20T03:59:12;96022.66;;;18.71;72.71
71621;BME280;59471;42.254;23.102;2023-08-20T04:01:38;96027.94;;;18.71;72.39
71621;BME280;59471;42.254;23.102;2023-08-20T04:04:04;96029.97;;;18.39;74.18
71621;BME280;59471;42.254;23.102;2023-08-20T04:06:30;96029.09;;;18.45;74.20
71621;BME280;59471;42.254;23.102;2023-08-20T04:08:55;96033.78;;;18.61;74.09
71621;BME280;59471;42.254;23.102;2023-08-20T04:11:21;96023.78;;;18.45;74.29
71621;BME280;59471;42.254;23.102;2023-08-20T04:13:47;96021.88;;;18.34;74.43
71621;BME280;59471;42.254;23.102;2023-08-20T04:16:13;96020.81;;;18.53;73.84
71621;BME280;59471;42.254;23.102;2023-08-20T04:18:39;96029.38;;;18.73;73.60
71621;BME280;59471;42.254;23.102;2023-08-20T04:21:05;96027.25;;;18.94;72.57
71621;BME280;59471;42.254;23.102;2023-08-20T04:23:30;96029.59;;;19.02;72.48
71621;BME280;59471;42.254;23.102;2023-08-20T04:25:56;96028.34;;;19.05;73.44
71621;BME280;59471;42.254;23.102;2023-08-20T04:28:21;96038.97;;;19.05;73.18
71621;BME280;59471;42.254;23.102;2023-08-20T04:30:47;96027.00;;;19.14;72.42
71621;BME280;59471;42.254;23.102;2023-08-20T04:33:13;96024.81;;;19.22;72.48
71621;BME280;59471;42.254;23.102;2023-08-20T04:35:38;96031.88;;;19.29;72.63
71621;BME280;59471;42.254;23.102;2023-08-20T04:38:04;96020.69;;;19.27;72.97
71621;BME280;59471;42.254;23.102;2023-08-20T04:40:29;96027.75;;;19.33;73.08
71621;BME280;59471;42.254;23.102;2023-08-20T04:42:55;96025.88;;;19.45;72.59
71621;BME280;59471;42.254;23.102;2023-08-20T04:45:20;96027.25;;;19.78;71.73
71621;BME280;59471;42.254;23.102;2023-08-20T04:47:46;96027.81;;;19.91;71.04
71621;BME280;59471;42.254;23.102;2023-08-20T04:50:12;96024.69;;;20.06;70.42
71621;BME280;59471;42.254;23.102;2023-08-20T04:52:38;96023.78;;;20.12;69.14
71621;BME280;59471;42.254;23.102;2023-08-20T04:55:04;96032.41;;;20.31;69.58
71621;BME280;59471;42.254;23.102;2023-08-20T04:57:31;96029.75;;;20.43;67.77
71621;BME280;59471;42.254;23.102;2023-08-20T04:59:57;96030.88;;;20.47;67.05
71621;BME280;59471;42.254;23.102;2023-08-20T05:02:22;96031.31;;;20.68;66.96
71621;BME280;59471;42.254;23.102;2023-08-20T05:04:48;96019.25;;;20.77;66.20
71621;BME280;59471;42.254;23.102;2023-08-20T05:07:14;96025.03;;;20.74;66.23
71621;BME280;59471;42.254;23.102;2023-08-20T05:09:40;96023.88;;;20.81;66.24
71621;BME280;59471;42.254;23.102;2023-08-20T05:12:05;96021.41;;;20.92;66.84
71621;BME280;59471;42.254;23.102;2023-08-20T05:14:31;96025.50;;;20.99;65.93
71621;BME280;59471;42.254;23.102;2023-08-20T05:16:57;96022.91;;;21.16;66.13
71621;BME280;59471;42.254;23.102;2023-08-20T05:19:22;96032.28;;;21.19;66.97
71621;BME280;59471;42.254;23.102;2023-08-20T05:21:48;96022.09;;;21.16;67.23
71621;BME280;59471;42.254;23.102;2023-08-20T05:24:14;96024.66;;;21.11;67.48
71621;BME280;59471;42.254;23.102;2023-08-20T05:26:39;96028.56;;;21.20;66.70
71621;BME280;59471;42.254;23.102;2023-08-20T05:29:05;96024.75;;;21.44;66.00
71621;BME280;59471;42.254;23.102;2023-08-20T05:31:31;96011.13;;;21.29;66.85
71621;BME280;59471;42.254;23.102;2023-08-20T05:33:57;96028.22;;;21.45;66.92
71621;BME280;59471;42.254;23.102;2023-08-20T05:36:23;96027.97;;;21.46;66.91
71621;BME280;59471;42.254;23.102;2023-08-20T05:38:49;96030.00;;;21.73;64.88
71621;BME280;59471;42.254;23.102;2023-08-20T05:41:14;96027.50;;;21.83;64.57
71621;BME280;59471;42.254;23.102;2023-08-20T05:43:40;96030.47;;;21.87;64.37
71621;BME280;59471;42.254;23.102;2023-08-20T05:46:05;96031.44;;;21.97;64.46
71621;BME280;59471;42.254;23.102;2023-08-20T05:48:31;96029.81;;;22.13;64.48
71621;BME280;59471;42.254;23.102;2023-08-20T05:50:57;96037.72;;;22.25;63.54
71621;BME280;59471;42.254;23.102;2023-08-20T05:53:22;96031.38;;;22.31;63.49
71621;BME280;59471;42.254;23.102;2023-08-20T05:55:48;96032.09;;;22.43;62.55
71621;BME280;59471;42.254;23.102;2023-08-20T05:58:14;96021.91;;;22.40;61.26
71621;BME280;59471;42.254;23.102;2023-08-20T06:00:39;96027.50;;;22.61;61.40
71621;BME280;59471;42.254;23.102;2023-08-20T06:03:05;96028.22;;;22.78;61.48
71621;BME280;59471;42.254;23.102;2023-08-20T06:05:33;96022.16;;;23.05;60.94
71621;BME280;59471;42.254;23.102;2023-08-20T06:07:59;96025.81;;;23.26;58.68
71621;BME280;59471;42.254;23.102;2023-08-20T06:10:25;96023.44;;;23.29;59.00
71621;BME280;59471;42.254;23.102;2023-08-20T06:12:50;96020.91;;;23.45;58.67
71621;BME280;59471;42.254;23.102;2023-08-20T06:15:16;96022.06;;;23.54;58.48
71621;BME280;59471;42.254;23.102;2023-08-20T06:17:41;96017.84;;;23.63;57.58
71621;BME280;59471;42.254;23.102;2023-08-20T06:20:07;96022.28;;;23.79;57.42
71621;BME280;59471;42.254;23.102;2023-08-20T06:22:34;96010.53;;;23.80;58.52
71621;BME280;59471;42.254;23.102;2023-08-20T06:24:59;96022.44;;;24.00;57.30
71621;BME280;59471;42.254;23.102;2023-08-20T06:27:25;96019.34;;;24.18;56.03
71621;BME280;59471;42.254;23.102;2023-08-20T06:29:51;96027.44;;;24.34;55.30
71621;BME280;59471;42.254;23.102;2023-08-20T06:32:17;96018.34;;;24.35;55.53
71621;BME280;59471;42.254;23.102;2023-08-20T06:34:42;96016.16;;;24.26;55.04
71621;BME280;59471;42.254;23.102;2023-08-20T06:37:08;96017.09;;;24.47;54.17
71621;BME280;59471;42.254;23.102;2023-08-20T06:39:33;96018.97;;;24.52;53.80
71621;BME280;59471;42.254;23.102;2023-08-20T06:41:59;96013.09;;;24.55;54.47
71621;BME280;59471;42.254;23.102;2023-08-20T06:44:24;96012.06;;;24.61;54.00
71621;BME280;59471;42.254;23.102;2023-08-20T06:46:50;96024.16;;;24.69;53.99
71621;BME280;59471;42.254;23.102;2023-08-20T06:49:16;96025.50;;;24.77;54.18
71621;BME280;59471;42.254;23.102;2023-08-20T06:51:41;96022.91;;;25.02;53.20
71621;BME280;59471;42.254;23.102;2023-08-20T06:54:07;96022.91;;;25.02;53.70
71621;BME280;59471;42.254;23.102;2023-08-20T06:56:33;96022.41;;;25.15;53.71
71621;BME280;59471;42.254;23.102;2023-08-20T06:58:59;96015.19;;;25.21;52.61
71621;BME280;59471;42.254;23.102;2023-08-20T07:01:26;96027.81;;;25.26;53.01
71621;BME280;59471;42.254;23.102;2023-08-20T07:03:51;96014.97;;;25.48;51.93
71621;BME280;59471;42.254;23.102;2023-08-20T07:06:17;96018.47;;;25.64;51.92
71621;BME280;59471;42.254;23.102;2023-08-20T07:08:43;95999.41;;;25.76;51.48
71621;BME280;59471;42.254;23.102;2023-08-20T07:11:09;96009.88;;;25.93;51.08
71621;BME280;59471;42.254;23.102;2023-08-20T07:13:35;96017.38;;;26.06;50.60
71621;BME280;59471;42.254;23.102;2023-08-20T07:16:01;96011.19;;;26.00;49.92
71621;BME280;59471;42.254;23.102;2023-08-20T07:18:27;96020.03;;;26.16;49.23
71621;BME280;59471;42.254;23.102;2023-08-20T07:20:54;96005.28;;;26.08;47.94
71621;BME280;59471;42.254;23.102;2023-08-20T07:23:21;96005.47;;;26.38;46.02
71621;BME280;59471;42.254;23.102;2023-08-20T07:25:46;95997.66;;;26.46;44.84
71621;BME280;59471;42.254;23.102;2023-08-20T07:28:13;95995.19;;;26.65;45.60
71621;BME280;59471;42.254;23.102;2023-08-20T07:30:39;96000.75;;;26.79;44.00
71621;BME280;59471;42.254;23.102;2023-08-20T07:33:06;95998.56;;;26.91;44.89
71621;BME280;59471;42.254;23.102;2023-08-20T07:35:32;95995.28;;;26.99;43.51
71621;BME280;59471;42.254;23.102;2023-08-20T07:37:58;95989.38;;;27.02;43.32
71621;BME280;59471;42.254;23.102;2023-08-20T07:40:23;95990.97;;;27.03;43.27
71621;BME280;59471;42.254;23.102;2023-08-20T07:42:49;95987.69;;;27.12;42.41
71621;BME280;59471;42.254;23.102;2023-08-20T07:45:15;95981.16;;;27.28;42.97
71621;BME280;59471;42.254;23.102;2023-08-20T07:47:41;95980.75;;;27.45;42.63
71621;BME280;59471;42.254;23.102;2023-08-20T07:50:07;95977.78;;;27.46;41.98
71621;BME280;59471;42.254;23.102;2023-08-20T07:52:32;95984.00;;;27.71;41.63
71621;BME280;59471;42.254;23.102;2023-08-20T07:54:58;95985.69;;;27.67;40.83
71621;BME280;59471;42.254;23.102;2023-08-20T07:57:24;95976.94;;;27.85;41.32
71621;BME280;59471;42.254;23.102;2023-08-20T07:59:50;95979.06;;;27.88;40.49
71621;BME280;59471;42.254;23.102;2023-08-20T08:02:16;95975.34;;;27.84;40.62
71621;BME280;59471;42.254;23.102;2023-08-20T08:04:42;95980.41;;;27.86;39.47
71621;BME280;59471;42.254;23.102;2023-08-20T08:07:09;95974.13;;;27.95;38.48
71621;BME280;59471;42.254;23.102;2023-08-20T08:09:35;95972.88;;;28.12;38.80
71621;BME280;59471;42.254;23.102;2023-08-20T08:12:01;95975.31;;;28.37;38.04
71621;BME280;59471;42.254;23.102;2023-08-20T08:14:27;95978.50;;;28.39;37.98
71621;BME280;59471;42.254;23.102;2023-08-20T08:16:53;95964.78;;;28.41;38.24
71621;BME280;59471;42.254;23.102;2023-08-20T08:19:18;95970.63;;;28.48;37.84
71621;BME280;59471;42.254;23.102;2023-08-20T08:21:45;95960.13;;;28.47;37.91
71621;BME280;59471;42.254;23.102;2023-08-20T08:24:12;95967.19;;;28.42;37.81
71621;BME280;59471;42.254;23.102;2023-08-20T08:26:38;95965.91;;;28.59;37.99
71621;BME280;59471;42.254;23.102;2023-08-20T08:29:05;95960.41;;;28.69;37.50
71621;BME280;59471;42.254;23.102;2023-08-20T08:31:32;95965.78;;;28.69;38.20
71621;BME280;59471;42.254;23.102;2023-08-20T08:33:58;95948.31;;;28.85;36.86
71621;BME280;59471;42.254;23.102;2023-08-20T08:36:24;95943.72;;;28.86;36.25
71621;BME280;59471;42.254;23.102;2023-08-20T08:38:53;95942.19;;;28.99;36.09
71621;BME280;59471;42.254;23.102;2023-08-20T08:41:22;95957.66;;;29.12;35.38
71621;BME280;59471;42.254;23.102;2023-08-20T08:43:51;95945.78;;;29.13;34.36
71621;BME280;59471;42.254;23.102;2023-08-20T08:46:17;95948.94;;;29.34;34.03
71621;BME280;59471;42.254;23.102;2023-08-20T08:48:44;95938.38;;;29.38;33.30
71621;BME280;59471;42.254;23.102;2023-08-20T08:51:13;95948.16;;;29.33;33.40
71621;BME280;59471;42.254;23.102;2023-08-20T08:53:41;95942.19;;;29.50;34.08
71621;BME280;59471;42.254;23.102;2023-08-20T08:56:08;95943.69;;;29.62;32.22
71621;BME280;59471;42.254;23.102;2023-08-20T08:58:33;95958.50;;;29.78;30.56
71621;BME280;59471;42.254;23.102;2023-08-20T09:00:59;95941.59;;;29.72;31.28
71621;BME280;59471;42.254;23.102;2023-08-20T09:03:25;95947.13;;;29.95;32.13
71621;BME280;59471;42.254;23.102;2023-08-20T09:05:57;95951.91;;;29.84;31.44
71621;BME280;59471;42.254;23.102;2023-08-20T09:08:31;95946.91;;;29.77;31.16
71621;BME280;59471;42.254;23.102;2023-08-20T09:10:59;95952.31;;;29.77;31.76
71621;BME280;59471;42.254;23.102;2023-08-20T09:16:11;95948.34;;;29.89;33.24
71621;BME280;59471;42.254;23.102;2023-08-20T09:18:39;95949.13;;;30.03;33.18
71621;BME280;59471;42.254;23.102;2023-08-20T09:21:09;95945.53;;;29.94;31.36
71621;BME280;59471;42.254;23.102;2023-08-20T09:23:36;95942.50;;;29.68;32.38
71621;BME280;59471;42.254;23.102;2023-08-20T09:26:04;95955.50;;;29.79;32.54
71621;BME280;59471;42.254;23.102;2023-08-20T09:28:45;95940.91;;;29.94;32.09
71621;BME280;59471;42.254;23.102;2023-08-20T09:31:12;95936.97;;;30.19;32.18
71621;BME280;59471;42.254;23.102;2023-08-20T09:33:51;95950.97;;;30.08;32.41
71621;BME280;59471;42.254;23.102;2023-08-20T09:36:18;95945.06;;;30.19;31.17
71621;BME280;59471;42.254;23.102;2023-08-20T09:38:44;95930.16;;;30.36;28.18
71621;BME280;59471;42.254;23.102;2023-08-20T09:41:11;95935.38;;;30.46;28.27
71621;BME280;59471;42.254;23.102;2023-08-20T09:43:38;95930.94;;;30.50;27.91
71621;BME280;59471;42.254;23.102;2023-08-20T09:46:09;95935.56;;;30.36;28.70
71621;BME280;59471;42.254;23.102;2023-08-20T09:48:38;95928.47;;;30.26;29.43
71621;BME280;59471;42.254;23.102;2023-08-20T09:51:05;95926.56;;;30.27;29.76
71621;BME280;59471;42.254;23.102;2023-08-20T09:53:44;95929.16;;;30.32;30.88
71621;BME280;59471;42.254;23.102;2023-08-20T09:56:26;95933.34;;;30.38;27.49
71621;BME280;59471;42.254;23.102;2023-08-20T09:59:00;95915.63;;;30.18;27.57
71621;BME280;59471;42.254;23.102;2023-08-20T10:01:27;95920.56;;;30.43;26.85
71621;BME280;59471;42.254;23.102;2023-08-20T10:03:53;95916.13;;;30.47;27.38
71621;BME280;59471;42.254;23.102;2023-08-20T10:06:19;95919.22;;;30.68;28.38
71621;BME280;59471;42.254;23.102;2023-08-20T10:08:46;95916.03;;;31.03;27.87
71621;BME280;59471;42.254;23.102;2023-08-20T10:11:12;95919.91;;;31.10;26.82
71621;BME280;59471;42.254;23.102;2023-08-20T10:13:38;95916.03;;;31.03;26.92
71621;BME280;59471;42.254;23.102;2023-08-20T10:16:04;95903.47;;;30.84;27.19
71621;BME280;59471;42.254;23.102;2023-08-20T10:18:30;95926.50;;;30.82;26.85
71621;BME280;59471;42.254;23.102;2023-08-20T10:21:00;95914.47;;;30.88;26.80
71621;BME280;59471;42.254;23.102;2023-08-20T10:23:26;95922.47;;;30.93;27.27
71621;BME280;59471;42.254;23.102;2023-08-20T10:25:53;95918.50;;;30.63;29.44
71621;BME280;59471;42.254;23.102;2023-08-20T10:33:36;95916.50;;;30.68;26.49
71621;BME280;59471;42.254;23.102;2023-08-20T10:36:07;95901.25;;;30.86;25.64
71621;BME280;59471;42.254;23.102;2023-08-20T10:38:37;95911.66;;;30.93;26.82
71621;BME280;59471;42.254;23.102;2023-08-20T10:41:08;95915.97;;;31.16;25.60
71621;BME280;59471;42.254;23.102;2023-08-20T10:43:46;95892.13;;;31.19;25.19
71621;BME280;59471;42.254;23.102;2023-08-20T10:49:02;95892.75;;;31.15;26.73
71621;BME280;59471;42.254;23.102;2023-08-20T10:51:36;95902.34;;;31.22;26.37
71621;BME280;59471;42.254;23.102;2023-08-20T10:54:07;95899.13;;;31.20;26.46
71621;BME280;59471;42.254;23.102;2023-08-20T10:56:59;95904.69;;;31.37;26.52
71621;BME280;59471;42.254;23.102;2023-08-20T10:59:26;95890.75;;;31.52;26.82
71621;BME280;59471;42.254;23.102;2023-08-20T11:01:55;95901.19;;;31.68;26.56
71621;BME280;59471;42.254;23.102;2023-08-20T11:04:23;95893.50;;;31.61;25.43
71621;BME280;59471;42.254;23.102;2023-08-20T11:06:56;95896.53;;;31.59;26.53
71621;BME280;59471;42.254;23.102;2023-08-20T11:09:24;95888.88;;;31.53;25.45
71621;BME280;59471;42.254;23.102;2023-08-20T11:11:52;95895.03;;;31.76;24.39
71621;BME280;59471;42.254;23.102;2023-08-20T11:14:19;95884.47;;;31.66;25.98
71621;BME280;59471;42.254;23.102;2023-08-20T11:16:46;95898.41;;;31.81;25.51
71621;BME280;59471;42.254;23.102;2023-08-20T11:19:13;95889.16;;;32.14;25.23
71621;BME280;59471;42.254;23.102;2023-08-20T11:21:40;95893.41;;;32.06;25.18
71621;BME280;59471;42.254;23.102;2023-08-20T11:24:07;95886.22;;;32.01;25.09
71621;BME280;59471;42.254;23.102;2023-08-20T11:26:34;95880.19;;;32.04;25.06
71621;BME280;59471;42.254;23.102;2023-08-20T11:29:01;95865.34;;;32.02;24.79
71621;BME280;59471;42.254;23.102;2023-08-20T11:31:30;95881.16;;;32.08;25.38
71621;BME280;59471;42.254;23.102;2023-08-20T11:33:57;95887.31;;;31.92;24.55
71621;BME280;59471;42.254;23.102;2023-08-20T11:36:23;95883.31;;;31.89;24.44
71621;BME280;59471;42.254;23.102;2023-08-20T11:38:53;95880.47;;;31.94;25.08
71621;BME280;59471;42.254;23.102;2023-08-20T11:41:20;95888.94;;;32.01;24.87
71621;BME280;59471;42.254;23.102;2023-08-20T11:43:47;95887.25;;;32.23;24.34
71621;BME280;59471;42.254;23.102;2023-08-20T11:46:14;95876.59;;;32.26;23.93
71621;BME280;59471;42.254;23.102;2023-08-20T11:49:02;95871.31;;;32.30;24.49
71621;BME280;59471;42.254;23.102;2023-08-20T11:51:39;95865.59;;;32.40;24.55
71621;BME280;59471;42.254;23.102;2023-08-20T11:54:16;95866.72;;;32.39;25.29
71621;BME280;59471;42.254;23.102;2023-08-20T11:56:45;95867.56;;;32.48;24.38
71621;BME280;59471;42.254;23.102;2023-08-20T11:59:12;95865.59;;;32.40;23.99
71621;BME280;59471;42.254;23.102;2023-08-20T12:01:39;95868.69;;;32.56;24.03
71621;BME280;59471;42.254;23.102;2023-08-20T12:04:06;95858.97;;;32.64;23.88
71621;BME280;59471;42.254;23.102;2023-08-20T12:06:36;95851.97;;;32.54;24.35
71621;BME280;59471;42.254;23.102;2023-08-20T12:09:22;95860.72;;;32.77;23.98
71621;BME280;59471;42.254;23.102;2023-08-20T12:11:52;95857.53;;;32.84;23.71
71621;BME280;59471;42.254;23.102;2023-08-20T12:14:20;95851.66;;;32.73;24.78
71621;BME280;59471;42.254;23.102;2023-08-20T12:16:46;95842.53;;;33.12;24.12
71621;BME280;59471;42.254;23.102;2023-08-20T12:19:12;95845.75;;;33.06;23.35
71621;BME280;59471;42.254;23.102;2023-08-20T12:21:39;95845.06;;;32.91;23.74
71621;BME280;59471;42.254;23.102;2023-08-20T12:24:06;95835.69;;;32.97;22.79
71621;BME280;59471;42.254;23.102;2023-08-20T12:26:32;95835.34;;;32.90;23.83
71621;BME280;59471;42.254;23.102;2023-08-20T12:28:57;95835.69;;;32.97;23.50
71621;BME280;59471;42.254;23.102;2023-08-20T12:31:23;95824.81;;;33.15;24.32
71621;BME280;59471;42.254;23.102;2023-08-20T12:33:48;95847.16;;;33.12;23.48
71621;BME280;59471;42.254;23.102;2023-08-20T12:36:14;95835.03;;;33.00;23.24
71621;BME280;59471;42.254;23.102;2023-08-20T12:38:39;95846.69;;;33.10;24.41
71621;BME280;59471;42.254;23.102;2023-08-20T12:41:06;95845.88;;;32.83;23.56
71621;BME280;59471;42.254;23.102;2023-08-20T12:43:32;95849.72;;;32.82;23.79
71621;BME280;59471;42.254;23.102;2023-08-20T12:45:57;95836.00;;;32.87;25.13
71621;BME280;59471;42.254;23.102;2023-08-20T12:48:23;95832.78;;;33.20;23.78
71621;BME280;59471;42.254;23.102;2023-08-20T12:50:48;95834.03;;;33.31;23.25
71621;BME280;59471;42.254;23.102;2023-08-20T12:53:14;95830.25;;;33.15;24.24
71621;BME280;59471;42.254;23.102;2023-08-20T12:55:40;95824.81;;;33.15;24.73
71621;BME280;59471;42.254;23.102;2023-08-20T12:58:05;95830.97;;;33.50;24.58
71621;BME280;59471;42.254;23.102;2023-08-20T13:00:31;95816.09;;;33.47;23.72
71621;BME280;59471;42.254;23.102;2023-08-20T13:02:57;95834.81;;;33.32;23.57
71621;BME280;59471;42.254;23.102;2023-08-20T13:05:23;95809.13;;;33.29;24.17
71621;BME280;59471;42.254;23.102;2023-08-20T13:07:50;95818.59;;;33.23;24.05
71621;BME280;59471;42.254;23.102;2023-08-20T13:10:16;95808.19;;;33.25;23.58